Time;durP1;ratioP1;P1;durP2;ratioP2;P2;SDS_P1;SDS_P2;PMS_P1;PMS_P2;Temp;Humidity;BMP_temperature;BMP_pressure;BME280_temperature;BME280_humidity;BME280_pressure;Samples;Min_cycle;Max_cycle;Signal;HPM_P1;HPM_P2
2023/11/02 00:01:32;;;;;;;8.35;3.72;;;25.40;99.90;;;;;;5090614;28;20112;-42
2023/11/02 00:03:58;;;;;;;5.13;3.58;;;25.40;99.90;;;;;;5081841;28;20103;-42
2023/11/02 00:06:36;;;;;;;5.22;3.42;;;25.40;99.90;;;;;;5093927;28;20107;-42
2023/11/02 00:09:09;;;;;;;7.00;3.88;;;25.40;99.90;;;;;;5093412;28;20012;-42
2023/11/02 00:12:02;;;;;;;6.88;3.50;;;25.30;99.90;;;;;;5093230;28;20032;-42
2023/11/02 00:14:33;;;;;;;6.70;3.83;;;25.30;99.90;;;;;;5093562;28;20020;-43
2023/11/02 00:17:00;;;;;;;6.00;3.88;;;25.30;99.90;;;;;;5093653;28;20349;-43
2023/11/02 00:19:37;;;;;;;5.88;3.95;;;25.30;99.90;;;;;;5085882;28;20044;-42
2023/11/02 00:22:07;;;;;;;6.75;3.92;;;25.30;99.90;;;;;;5090113;28;20475;-43
2023/11/02 00:24:40;;;;;;;8.38;3.88;;;25.30;99.90;;;;;;5092001;28;20090;-42
2023/11/02 00:27:07;;;;;;;6.93;3.72;;;25.30;99.90;;;;;;5092125;28;20017;-41
2023/11/02 00:29:33;;;;;;;8.07;4.35;;;25.30;99.90;;;;;;5086077;28;20027;-43
2023/11/02 00:31:59;;;;;;;5.10;3.42;;;25.30;99.90;;;;;;5085702;28;20020;-42
2023/11/02 00:34:27;;;;;;;5.10;3.60;;;25.30;99.90;;;;;;5081999;28;20044;-42
2023/11/02 00:36:53;;;;;;;6.13;3.92;;;25.30;99.90;;;;;;5083218;28;20056;-42
2023/11/02 00:39:22;;;;;;;5.95;3.75;;;25.30;99.90;;;;;;5076420;28;20039;-42
2023/11/02 00:41:48;;;;;;;5.80;3.33;;;25.30;99.90;;;;;;5079848;28;20111;-43
2023/11/02 00:44:17;;;;;;;6.40;3.40;;;25.20;99.90;;;;;;5093642;28;20445;-44
2023/11/02 00:46:45;;;;;;;6.30;3.95;;;25.30;99.90;;;;;;5090264;28;20559;-41
2023/11/02 00:49:22;;;;;;;5.07;3.42;;;25.20;99.90;;;;;;5084997;28;20029;-43
2023/11/02 00:52:00;;;;;;;7.75;3.60;;;25.30;99.90;;;;;;5076796;28;20036;-43
2023/11/02 00:54:44;;;;;;;7.13;3.63;;;25.20;99.90;;;;;;5073472;28;20423;-43
2023/11/02 00:57:15;;;;;;;4.38;3.40;;;25.30;99.90;;;;;;5079073;28;20539;-43
2023/11/02 00:59:41;;;;;;;12.43;3.30;;;25.20;99.90;;;;;;5091427;28;20024;-43
2023/11/02 01:02:08;;;;;;;6.95;3.17;;;25.20;99.90;;;;;;5088016;28;20024;-41
2023/11/02 01:04:42;;;;;;;8.93;3.25;;;25.20;99.90;;;;;;5082482;28;20031;-42
2023/11/02 01:07:10;;;;;;;4.75;3.25;;;25.20;99.90;;;;;;5090384;28;20065;-43
2023/11/02 01:09:49;;;;;;;8.93;4.47;;;25.20;99.90;;;;;;5078053;28;20074;-41
2023/11/02 01:12:36;;;;;;;5.30;3.47;;;25.20;99.90;;;;;;5079755;28;20108;-41
2023/11/02 01:15:23;;;;;;;5.57;3.15;;;25.20;99.90;;;;;;5074959;28;20135;-42
2023/11/02 01:17:49;;;;;;;4.20;3.22;;;25.10;99.90;;;;;;5074343;28;20094;-42
2023/11/02 01:20:33;;;;;;;3.88;2.90;;;25.10;99.90;;;;;;5071775;28;20472;-43
2023/11/02 01:23:09;;;;;;;5.57;3.30;;;25.10;99.90;;;;;;5079595;28;20021;-42
2023/11/02 01:25:45;;;;;;;4.85;3.45;;;25.10;99.90;;;;;;5088833;28;20423;-41
2023/11/02 01:28:22;;;;;;;5.40;3.47;;;25.10;99.90;;;;;;5089658;28;20026;-42
2023/11/02 01:31:13;;;;;;;4.72;3.38;;;25.10;99.90;;;;;;5084951;28;20134;-41
2023/11/02 01:34:01;;;;;;;5.20;3.35;;;25.10;99.90;;;;;;5087427;28;20026;-42
2023/11/02 01:36:29;;;;;;;5.35;3.38;;;25.00;99.90;;;;;;5085911;28;20030;-43
2023/11/02 01:39:14;;;;;;;4.03;2.80;;;25.00;99.90;;;;;;5089625;28;20089;-42
2023/11/02 01:41:45;;;;;;;5.78;3.38;;;25.00;99.90;;;;;;5080553;28;20173;-41
2023/11/02 01:44:31;;;;;;;4.32;3.00;;;25.00;99.90;;;;;;5085511;28;20020;-42
2023/11/02 01:47:05;;;;;;;4.22;3.22;;;25.00;99.90;;;;;;5086708;28;20032;-43
2023/11/02 01:49:55;;;;;;;6.47;3.22;;;25.00;99.90;;;;;;5088586;28;20439;-43
2023/11/02 01:52:38;;;;;;;6.13;2.88;;;25.00;99.90;;;;;;5083005;28;20158;-39
2023/11/02 01:55:06;;;;;;;4.53;3.08;;;25.00;99.90;;;;;;5078510;28;20048;-42
2023/11/02 01:57:38;;;;;;;4.75;3.10;;;25.00;99.90;;;;;;5090185;28;20073;-42
2023/11/02 02:00:13;;;;;;;4.63;2.83;;;25.00;99.90;;;;;;5091687;28;20027;-42
2023/11/02 02:03:04;;;;;;;4.30;3.20;;;25.00;99.90;;;;;;5075901;28;20102;-42
2023/11/02 02:05:39;;;;;;;4.97;3.13;;;24.90;99.90;;;;;;5075639;28;20039;-40
2023/11/02 02:08:34;;;;;;;4.88;3.40;;;24.90;99.90;;;;;;5091859;28;20539;-39
2023/11/02 02:11:28;;;;;;;5.68;3.35;;;24.90;99.90;;;;;;5086542;28;20048;-41
2023/11/02 02:14:18;;;;;;;5.13;2.63;;;24.90;99.90;;;;;;5095946;28;20391;-41
2023/11/02 02:17:23;;;;;;;4.82;3.00;;;24.90;99.90;;;;;;5091279;28;20097;-40
2023/11/02 02:20:30;;;;;;;4.88;3.58;;;24.90;99.90;;;;;;5080058;28;20066;-40
2023/11/02 02:23:19;;;;;;;4.90;2.65;;;24.90;99.90;;;;;;5077449;28;20040;-40
2023/11/02 02:26:06;;;;;;;5.75;3.03;;;24.80;99.90;;;;;;5079457;28;20008;-41
2023/11/02 02:28:57;;;;;;;4.22;3.03;;;24.80;99.90;;;;;;5074571;28;20028;-41
2023/11/02 02:31:52;;;;;;;5.18;3.15;;;24.80;99.90;;;;;;5073992;28;20104;-41
2023/11/02 02:34:39;;;;;;;4.95;3.03;;;24.80;99.90;;;;;;5055735;28;20036;-41
2023/11/02 02:37:39;;;;;;;3.92;2.72;;;24.80;99.90;;;;;;5073191;28;20035;-40
2023/11/02 02:40:07;;;;;;;4.07;3.20;;;24.80;99.90;;;;;;5072053;28;20028;-40
2023/11/02 02:42:37;;;;;;;5.32;2.80;;;24.70;99.90;;;;;;5091225;28;20035;-40
2023/11/02 02:45:10;;;;;;;5.00;2.90;;;24.70;99.90;;;;;;5091728;28;20028;-41
2023/11/02 02:47:38;;;;;;;6.07;2.53;;;24.70;99.90;;;;;;5091415;28;20028;-41
2023/11/02 02:50:06;;;;;;;3.50;2.40;;;24.70;99.90;;;;;;5091668;28;20077;-40
2023/11/02 02:52:36;;;;;;;4.78;2.92;;;24.70;99.90;;;;;;5091680;28;20024;-40
2023/11/02 02:55:02;;;;;;;5.00;3.28;;;24.70;99.90;;;;;;5091959;28;20103;-41
2023/11/02 02:57:31;;;;;;;4.53;3.50;;;24.70;99.90;;;;;;5091452;28;20175;-40
2023/11/02 02:59:59;;;;;;;3.90;2.90;;;24.70;99.90;;;;;;5091849;28;20024;-39
2023/11/02 03:02:30;;;;;;;4.35;2.90;;;24.70;99.90;;;;;;5091982;28;20023;-40
2023/11/02 03:04:57;;;;;;;3.70;2.80;;;24.70;99.90;;;;;;5091165;28;20028;-40
2023/11/02 03:07:26;;;;;;;4.32;2.33;;;24.70;99.90;;;;;;5090652;28;20024;-40
2023/11/02 03:09:58;;;;;;;3.40;2.65;;;24.60;99.90;;;;;;5085709;28;20044;-40
2023/11/02 03:12:27;;;;;;;3.47;2.25;;;24.60;99.90;;;;;;5069453;28;20416;-41
2023/11/02 03:15:06;;;;;;;5.72;2.75;;;24.60;99.90;;;;;;5070102;28;20103;-41
2023/11/02 03:17:41;;;;;;;3.33;2.45;;;24.60;99.90;;;;;;5072675;28;20052;-41
2023/11/02 03:20:10;;;;;;;5.72;2.88;;;24.50;99.90;;;;;;5075538;28;20032;-41
2023/11/02 03:22:37;;;;;;;3.53;2.63;;;24.50;99.90;;;;;;5073036;28;20111;-40
2023/11/02 03:25:23;;;;;;;6.25;2.88;;;24.50;99.90;;;;;;5073609;28;20078;-41
2023/11/02 03:28:15;;;;;;;4.15;3.03;;;24.50;99.90;;;;;;5074975;28;20025;-41
2023/11/02 03:30:59;;;;;;;3.22;2.58;;;24.50;99.90;;;;;;5073878;28;20092;-41
2023/11/02 03:33:34;;;;;;;5.60;2.72;;;24.50;99.90;;;;;;5074058;28;20117;-41
2023/11/02 03:36:04;;;;;;;5.00;2.67;;;24.50;99.90;;;;;;5073726;28;20035;-40
2023/11/02 03:38:51;;;;;;;4.43;2.63;;;24.50;99.90;;;;;;5085309;28;20021;-40
2023/11/02 03:41:41;;;;;;;4.38;2.58;;;24.50;99.90;;;;;;5093388;28;20024;-41
2023/11/02 03:44:18;;;;;;;4.13;2.53;;;24.40;99.90;;;;;;5092999;28;20070;-40
2023/11/02 03:47:25;;;;;;;4.57;3.00;;;24.40;99.90;;;;;;5088796;28;20060;-40
2023/11/02 03:50:04;;;;;;;5.45;2.50;;;24.40;99.90;;;;;;5074073;28;20031;-40
2023/11/02 03:52:38;;;;;;;3.85;2.65;;;24.40;99.90;;;;;;5073352;28;20354;-40
2023/11/02 03:55:30;;;;;;;4.63;2.67;;;24.40;99.90;;;;;;5082452;28;20384;-41
2023/11/02 03:58:10;;;;;;;4.47;2.28;;;24.40;99.90;;;;;;5073868;28;20028;-40
2023/11/02 04:00:54;;;;;;;5.78;2.78;;;24.40;99.90;;;;;;5073722;28;20023;-40
2023/11/02 04:03:20;;;;;;;3.30;2.50;;;24.40;99.90;;;;;;5072763;28;20027;-41
2023/11/02 04:05:49;;;;;;;5.38;2.88;;;24.40;99.90;;;;;;5073408;28;20028;-40
2023/11/02 04:08:19;;;;;;;3.83;2.55;;;24.30;99.90;;;;;;5070920;28;20477;-40
2023/11/02 04:11:01;;;;;;;4.97;2.85;;;24.30;99.90;;;;;;5080469;28;20055;-41
2023/11/02 04:13:37;;;;;;;5.43;2.78;;;24.30;99.90;;;;;;5082598;28;20024;-40
2023/11/02 04:16:04;;;;;;;4.82;2.58;;;24.30;99.90;;;;;;5073127;28;20017;-40
2023/11/02 04:18:30;;;;;;;4.20;2.72;;;24.30;99.90;;;;;;5071682;28;20476;-41
2023/11/02 04:20:56;;;;;;;4.55;2.60;;;24.30;99.90;;;;;;5073390;28;20032;-42
2023/11/02 04:23:23;;;;;;;4.47;2.03;;;24.30;99.90;;;;;;5074545;28;20077;-40
2023/11/02 04:25:52;;;;;;;2.87;2.33;;;24.30;99.90;;;;;;5076746;28;20035;-40
2023/11/02 04:28:18;;;;;;;3.17;2.15;;;24.30;99.90;;;;;;5092812;28;20284;-40
2023/11/02 04:30:44;;;;;;;3.15;2.50;;;24.30;99.90;;;;;;5089499;28;20063;-41
2023/11/02 04:33:10;;;;;;;4.80;2.53;;;24.30;99.90;;;;;;5073741;28;20021;-40
2023/11/02 04:35:36;;;;;;;2.70;2.05;;;24.30;99.90;;;;;;5072730;28;20032;-40
2023/11/02 04:38:07;;;;;;;6.10;2.05;;;24.20;99.90;;;;;;5072040;28;20028;-41
2023/11/02 04:40:33;;;;;;;4.45;2.30;;;24.20;99.90;;;;;;5074998;28;20578;-40
2023/11/02 04:43:03;;;;;;;4.03;2.22;;;24.20;99.90;;;;;;5073006;28;20028;-41
2023/11/02 04:45:29;;;;;;;4.40;2.17;;;24.20;99.90;;;;;;5072665;28;20107;-40
2023/11/02 04:47:56;;;;;;;3.63;2.00;;;24.20;99.90;;;;;;5073129;28;20073;-41
2023/11/02 04:50:22;;;;;;;3.10;2.22;;;24.10;99.90;;;;;;5073841;28;20484;-40
2023/11/02 04:52:52;;;;;;;6.45;2.03;;;24.20;99.90;;;;;;5072370;28;20020;-40
2023/11/02 04:55:19;;;;;;;4.13;2.25;;;24.10;99.90;;;;;;5086224;28;20488;-41
2023/11/02 04:57:45;;;;;;;3.53;2.38;;;24.10;99.90;;;;;;5092654;28;20463;-40
2023/11/02 05:00:11;;;;;;;4.25;2.75;;;24.10;99.90;;;;;;5092759;28;20392;-40
2023/11/02 05:02:37;;;;;;;5.40;2.15;;;24.10;99.90;;;;;;5094012;28;20026;-41
2023/11/02 05:05:03;;;;;;;2.50;1.80;;;24.10;99.90;;;;;;5093423;28;20119;-41
2023/11/02 05:07:29;;;;;;;7.82;2.45;;;24.10;99.90;;;;;;5093623;28;20024;-41
2023/11/02 05:09:55;;;;;;;3.55;2.13;;;24.10;99.90;;;;;;5092321;28;20032;-41
2023/11/02 05:12:21;;;;;;;3.42;2.30;;;24.10;99.90;;;;;;5090824;28;20028;-40
2023/11/02 05:14:47;;;;;;;3.65;2.00;;;24.10;99.90;;;;;;5091077;28;20020;-40
2023/11/02 05:17:13;;;;;;;3.03;2.00;;;24.10;99.90;;;;;;5089795;28;20028;-41
2023/11/02 05:19:38;;;;;;;6.38;1.98;;;24.10;99.90;;;;;;5092716;28;20107;-40
2023/11/02 05:22:08;;;;;;;4.10;1.80;;;24.10;99.90;;;;;;5093050;28;20070;-42
2023/11/02 05:24:34;;;;;;;3.38;2.28;;;24.10;99.90;;;;;;5093191;28;20101;-41
2023/11/02 05:27:00;;;;;;;3.72;2.30;;;24.10;99.90;;;;;;5093233;28;20039;-40
2023/11/02 05:29:26;;;;;;;3.40;2.20;;;24.00;99.90;;;;;;5092938;28;20414;-41
2023/11/02 05:31:52;;;;;;;2.42;1.80;;;24.00;99.90;;;;;;5093068;28;20111;-41
2023/11/02 05:34:18;;;;;;;5.38;2.35;;;24.00;99.90;;;;;;5092865;28;20074;-41
2023/11/02 05:36:43;;;;;;;2.60;2.13;;;24.00;99.90;;;;;;5092732;28;20035;-41
2023/11/02 05:39:09;;;;;;;5.78;2.45;;;24.00;99.90;;;;;;5092348;28;20473;-41
2023/11/02 05:41:35;;;;;;;2.88;2.03;;;24.10;99.90;;;;;;5092538;28;20028;-40
2023/11/02 05:44:01;;;;;;;3.38;1.85;;;24.10;99.90;;;;;;5092881;28;20024;-41
2023/11/02 05:46:27;;;;;;;2.63;1.92;;;24.10;99.90;;;;;;5092784;28;20440;-40
2023/11/02 05:48:52;;;;;;;3.30;1.88;;;24.00;99.90;;;;;;5092691;28;20031;-41
2023/11/02 05:51:18;;;;;;;3.30;2.10;;;24.00;99.90;;;;;;5092470;28;20087;-40
2023/11/02 05:53:44;;;;;;;4.00;2.10;;;24.00;99.90;;;;;;5092717;28;20378;-40
2023/11/02 05:56:10;;;;;;;2.75;2.03;;;24.00;99.90;;;;;;5091716;28;20103;-40
2023/11/02 05:58:36;;;;;;;3.67;2.00;;;24.00;99.90;;;;;;5092515;28;20044;-40
2023/11/02 06:01:01;;;;;;;2.53;1.75;;;24.00;99.90;;;;;;5082076;28;20105;-40
2023/11/02 06:03:29;;;;;;;2.75;1.80;;;24.00;99.90;;;;;;5080320;28;20024;-40
2023/11/02 06:05:54;;;;;;;4.32;2.03;;;24.00;99.90;;;;;;5076072;28;20107;-40
2023/11/02 06:08:20;;;;;;;4.65;2.03;;;24.00;99.90;;;;;;5070457;28;20564;-41
2023/11/02 06:10:46;;;;;;;2.95;1.77;;;24.00;99.90;;;;;;5087204;28;20055;-41
2023/11/02 06:13:12;;;;;;;4.25;2.00;;;24.00;99.90;;;;;;5091948;28;20012;-40
2023/11/02 06:15:38;;;;;;;2.50;1.77;;;23.90;99.90;;;;;;5092256;28;20415;-40
2023/11/02 06:18:05;;;;;;;5.18;2.20;;;24.00;99.90;;;;;;5092063;28;20028;-41
2023/11/02 06:20:32;;;;;;;2.30;1.70;;;23.90;99.90;;;;;;5091983;28;20437;-40
2023/11/02 06:22:58;;;;;;;2.55;1.75;;;24.00;99.90;;;;;;5091058;28;20039;-40
2023/11/02 06:25:24;;;;;;;3.90;1.85;;;23.90;99.90;;;;;;5092309;28;20480;-41
2023/11/02 06:27:50;;;;;;;4.07;1.80;;;23.90;99.90;;;;;;5092307;28;20123;-41
2023/11/02 06:30:16;;;;;;;5.25;2.30;;;23.90;99.90;;;;;;5092039;28;20531;-41
2023/11/02 06:32:43;;;;;;;3.90;1.98;;;23.90;99.90;;;;;;5092164;28;20534;-41
2023/11/02 06:35:09;;;;;;;5.53;2.03;;;23.90;99.90;;;;;;5092140;28;20154;-41
2023/11/02 06:37:54;;;;;;;4.38;2.00;;;23.90;99.90;;;;;;5092098;28;20047;-40
2023/11/02 06:40:20;;;;;;;3.40;2.30;;;23.90;99.90;;;;;;5091832;28;20422;-41
2023/11/02 06:42:49;;;;;;;3.40;1.67;;;23.90;99.90;;;;;;5090863;28;20028;-41
2023/11/02 06:45:18;;;;;;;2.70;1.60;;;23.90;99.90;;;;;;5091878;28;20394;-41
2023/11/02 06:47:45;;;;;;;2.75;1.83;;;23.90;99.90;;;;;;5092112;28;20074;-41
2023/11/02 06:50:11;;;;;;;1.60;1.17;;;23.80;99.90;;;;;;5090647;28;20024;-40
2023/11/02 06:52:37;;;;;;;2.90;1.58;;;23.80;99.90;;;;;;5093608;28;20387;-41
2023/11/02 06:55:03;;;;;;;2.05;1.65;;;23.80;99.90;;;;;;5096170;28;20035;-42
2023/11/02 06:57:29;;;;;;;2.47;1.50;;;23.80;99.90;;;;;;5095790;28;20024;-41
2023/11/02 06:59:55;;;;;;;4.13;1.60;;;23.80;99.90;;;;;;5095774;28;20054;-41
2023/11/02 07:02:24;;;;;;;3.75;1.50;;;23.80;99.90;;;;;;5095786;28;20024;-41
2023/11/02 07:04:57;;;;;;;3.95;1.65;;;23.80;99.90;;;;;;5095795;28;20032;-41
2023/11/02 07:07:24;;;;;;;4.95;1.83;;;23.70;99.90;;;;;;5095107;28;20038;-42
2023/11/02 07:09:53;;;;;;;2.45;1.30;;;23.70;99.90;;;;;;5095391;28;20117;-41
2023/11/02 07:12:19;;;;;;;3.60;1.40;;;23.70;99.90;;;;;;5093585;28;20115;-41
2023/11/02 07:14:46;;;;;;;6.38;2.65;;;23.70;99.90;;;;;;5095223;28;20067;-41
2023/11/02 07:17:13;;;;;;;2.67;1.50;;;23.70;99.90;;;;;;5095047;28;20472;-41
2023/11/02 07:19:39;;;;;;;11.98;2.75;;;23.70;99.90;;;;;;5095438;28;20079;-41
2023/11/02 07:22:05;;;;;;;3.70;2.00;;;23.70;99.90;;;;;;5095585;28;20103;-41
2023/11/02 07:24:30;;;;;;;5.15;1.83;;;23.70;99.90;;;;;;5095353;28;20488;-41
2023/11/02 07:26:57;;;;;;;4.18;1.48;;;23.70;99.90;;;;;;5095206;28;20034;-44
2023/11/02 07:29:23;;;;;;;6.07;2.10;;;23.70;99.90;;;;;;5095171;28;20028;-41
2023/11/02 07:31:49;;;;;;;3.90;1.80;;;23.70;99.90;;;;;;5095232;28;20031;-43
2023/11/02 07:34:14;;;;;;;4.35;1.90;;;23.70;99.90;;;;;;5095143;28;20016;-41
2023/11/02 07:36:40;;;;;;;2.75;1.58;;;23.70;99.90;;;;;;5095170;28;20028;-41
2023/11/02 07:39:06;;;;;;;4.00;1.90;;;23.70;99.90;;;;;;5095383;28;20020;-41
2023/11/02 07:41:32;;;;;;;3.15;1.92;;;23.70;99.90;;;;;;5094498;28;20036;-41
2023/11/02 07:43:58;;;;;;;4.90;1.83;;;23.70;99.90;;;;;;5095095;28;20089;-42
2023/11/02 07:46:24;;;;;;;4.97;2.28;;;23.70;99.90;;;;;;5095003;28;20054;-41
2023/11/02 07:48:51;;;;;;;5.25;1.95;;;23.70;99.90;;;;;;5094849;28;20052;-41
2023/11/02 07:51:17;;;;;;;6.45;2.00;;;23.70;99.90;;;;;;5094684;28;20032;-41
2023/11/02 07:53:42;;;;;;;4.72;2.08;;;23.70;99.90;;;;;;5094766;28;20372;-41
2023/11/02 07:56:09;;;;;;;3.53;1.90;;;23.70;99.90;;;;;;5094890;28;20020;-41
2023/11/02 07:58:36;;;;;;;4.88;2.05;;;23.70;99.90;;;;;;5094793;28;20016;-41
2023/11/02 08:01:05;;;;;;;5.25;1.95;;;23.70;99.90;;;;;;5094644;28;20028;-42
2023/11/02 08:03:31;;;;;;;6.20;2.15;;;23.70;99.90;;;;;;5094256;28;20024;-41
2023/11/02 08:05:57;;;;;;;5.20;2.13;;;23.70;99.90;;;;;;5094438;28;20032;-41
2023/11/02 08:08:24;;;;;;;3.53;2.10;;;23.70;99.90;;;;;;5094076;28;20027;-41
2023/11/02 08:10:50;;;;;;;6.18;2.00;;;23.70;99.90;;;;;;5092839;28;20399;-41
2023/11/02 08:13:16;;;;;;;3.50;2.33;;;23.70;99.90;;;;;;5094625;28;20047;-41
2023/11/02 08:15:42;;;;;;;5.25;2.08;;;23.70;99.90;;;;;;5094482;28;20484;-41
2023/11/02 08:18:08;;;;;;;3.42;1.88;;;23.70;99.90;;;;;;5093846;28;20111;-41
2023/11/02 08:20:34;;;;;;;2.03;1.20;;;23.70;99.90;;;;;;5093322;28;20426;-41
2023/11/02 08:23:00;;;;;;;3.78;1.50;;;23.70;99.90;;;;;;5093805;28;20111;-41
2023/11/02 08:25:26;;;;;;;5.22;2.15;;;23.70;99.90;;;;;;5093996;28;20020;-41
2023/11/02 08:27:57;;;;;;;4.90;2.47;;;23.70;99.90;;;;;;5094276;28;20050;-41
2023/11/02 08:30:26;;;;;;;5.25;2.10;;;23.70;99.90;;;;;;5094136;28;20416;-41
2023/11/02 08:32:53;;;;;;;3.97;1.48;;;23.70;99.90;;;;;;5094131;28;20476;-41
2023/11/02 08:35:22;;;;;;;4.50;1.83;;;23.70;99.90;;;;;;5093850;28;20055;-41
2023/11/02 08:37:49;;;;;;;2.10;1.63;;;23.70;99.90;;;;;;5093858;28;20028;-41
2023/11/02 08:40:20;;;;;;;4.10;1.90;;;23.70;99.90;;;;;;5093825;28;20024;-41
2023/11/02 08:42:47;;;;;;;2.95;1.88;;;23.80;99.90;;;;;;5093840;28;20027;-41
2023/11/02 08:45:13;;;;;;;4.17;2.63;;;23.80;99.90;;;;;;5093824;28;20020;-41
2023/11/02 08:47:40;;;;;;;2.08;1.55;;;23.90;99.90;;;;;;5093356;28;20063;-41
2023/11/02 08:50:08;;;;;;;4.03;1.80;;;23.90;99.90;;;;;;5093534;28;20024;-41
2023/11/02 08:52:34;;;;;;;3.08;1.73;;;23.90;99.90;;;;;;5093655;28;20036;-42
2023/11/02 08:55:00;;;;;;;3.45;2.28;;;23.90;99.90;;;;;;5093675;28;20492;-41
2023/11/02 08:57:27;;;;;;;3.53;2.17;;;24.00;99.90;;;;;;5093696;28;20028;-42
2023/11/02 08:59:52;;;;;;;2.20;1.60;;;24.10;99.90;;;;;;5093434;28;20028;-41
2023/11/02 09:02:18;;;;;;;2.38;1.80;;;24.00;99.90;;;;;;5093284;28;20020;-41
2023/11/02 09:04:44;;;;;;;3.88;2.30;;;24.10;99.90;;;;;;5093272;28;20020;-41
2023/11/02 09:07:10;;;;;;;6.47;1.85;;;24.10;99.90;;;;;;5093503;28;20035;-40
2023/11/02 09:09:36;;;;;;;2.92;1.83;;;24.20;99.90;;;;;;5093236;28;20054;-40
2023/11/02 09:12:02;;;;;;;4.32;1.70;;;24.20;99.90;;;;;;5093185;28;20076;-40
2023/11/02 09:14:28;;;;;;;6.57;1.92;;;24.30;99.90;;;;;;5092357;28;20511;-40
2023/11/02 09:16:54;;;;;;;2.88;1.70;;;24.30;99.90;;;;;;5093053;28;20032;-40
2023/11/02 09:19:20;;;;;;;6.43;2.47;;;24.30;99.90;;;;;;5093084;28;20165;-41
2023/11/02 09:21:47;;;;;;;2.88;1.38;;;24.30;99.90;;;;;;5093317;28;20020;-41
2023/11/02 09:24:14;;;;;;;4.78;1.80;;;24.40;99.90;;;;;;5091754;28;20499;-41
2023/11/02 09:26:41;;;;;;;2.88;1.80;;;24.50;99.90;;;;;;5078710;28;20031;-41
2023/11/02 09:29:07;;;;;;;2.97;2.10;;;24.50;99.90;;;;;;5074190;28;20086;-41
2023/11/02 09:31:33;;;;;;;3.92;1.83;;;24.50;99.90;;;;;;5072355;28;20495;-41
2023/11/02 09:34:02;;;;;;;4.70;1.80;;;24.60;99.90;;;;;;5088281;28;20024;-41
2023/11/02 09:36:31;;;;;;;8.00;2.25;;;24.60;99.90;;;;;;5091782;28;20063;-41
2023/11/02 09:39:02;;;;;;;9.13;2.08;;;24.70;99.90;;;;;;5092693;28;20107;-41
2023/11/02 09:41:29;;;;;;;6.05;1.67;;;24.70;99.90;;;;;;5092478;28;20100;-41
2023/11/02 09:43:56;;;;;;;3.45;1.70;;;24.80;99.90;;;;;;5092745;28;20073;-41
2023/11/02 09:46:23;;;;;;;;;;;24.80;99.90;;;;;;5091623;28;20476;-40
2023/11/02 09:48:49;;;;;;;6.75;1.80;;;24.90;99.90;;;;;;5092507;28;19939;-41
2023/11/02 09:51:15;;;;;;;7.38;2.13;;;25.00;99.90;;;;;;5091322;28;20054;-42
2023/11/02 09:53:41;;;;;;;5.05;2.38;;;25.00;99.90;;;;;;5091407;28;20103;-41
2023/11/02 09:56:09;;;;;;;3.42;1.40;;;25.00;99.90;;;;;;5091369;28;20376;-42
2023/11/02 09:58:35;;;;;;;3.45;1.70;;;25.10;99.90;;;;;;5090612;28;20089;-41
2023/11/02 10:01:02;;;;;;;5.97;1.98;;;25.20;99.90;;;;;;5091314;28;20070;-42
2023/11/02 10:03:28;;;;;;;4.60;1.73;;;25.20;99.90;;;;;;5091582;28;20418;-42
2023/11/02 10:05:54;;;;;;;2.83;1.65;;;25.30;99.90;;;;;;5091104;28;20265;-42
2023/11/02 10:08:20;;;;;;;4.32;1.75;;;25.30;99.90;;;;;;5092487;28;20020;-42
2023/11/02 10:10:46;;;;;;;6.45;1.65;;;25.40;99.90;;;;;;5091830;28;20446;-42
2023/11/02 10:13:12;;;;;;;3.38;1.88;;;25.40;99.90;;;;;;5089827;28;20028;-42
2023/11/02 10:15:38;;;;;;;5.05;1.90;;;25.40;99.90;;;;;;5091550;28;20031;-42
2023/11/02 10:18:14;;;;;;;6.45;2.08;;;25.50;99.90;;;;;;5092227;28;20027;-42
2023/11/02 10:20:40;;;;;;;5.03;2.20;;;25.50;99.90;;;;;;5091690;28;20027;-42
2023/11/02 10:23:12;;;;;;;5.05;1.63;;;25.60;99.90;;;;;;5091796;28;20040;-42
2023/11/02 10:25:40;;;;;;;3.15;1.27;;;25.60;99.90;;;;;;5088603;28;20030;-42
2023/11/02 10:28:06;;;;;;;4.65;1.13;;;25.60;99.90;;;;;;5095547;28;20055;-47
2023/11/02 10:30:33;;;;;;;3.50;1.30;;;25.60;99.90;;;;;;5095647;28;20028;-41
2023/11/02 10:33:06;;;;;;;2.88;1.08;;;25.70;99.90;;;;;;5095213;28;20043;-41
2023/11/02 10:35:33;;;;;;;4.25;1.10;;;25.70;99.90;;;;;;5095887;28;20024;-43
2023/11/02 10:38:01;;;;;;;2.13;0.90;;;25.70;99.90;;;;;;5095129;28;20348;-43
2023/11/02 10:40:47;;;;;;;4.95;1.00;;;25.70;99.90;;;;;;5075899;28;20016;-42
2023/11/02 10:43:20;;;;;;;4.38;1.25;;;25.70;99.90;;;;;;5095099;28;20106;-42
2023/11/02 10:45:50;;;;;;;3.72;0.90;;;25.70;99.90;;;;;;5095881;28;20024;-42
2023/11/02 10:48:17;;;;;;;3.33;0.70;;;25.70;99.90;;;;;;5095623;28;20016;-43
2023/11/02 10:50:46;;;;;;;3.00;0.70;;;25.70;99.90;;;;;;5095321;28;20123;-42
2023/11/02 10:53:22;;;;;;;3.05;0.70;;;25.70;99.90;;;;;;5096005;28;20032;-42
2023/11/02 10:55:52;;;;;;;3.55;1.02;;;25.70;99.90;;;;;;5095734;28;20090;-42
2023/11/02 10:58:20;;;;;;;3.83;0.80;;;25.80;99.90;;;;;;5095870;28;20024;-43
2023/11/02 11:00:50;;;;;;;4.75;0.88;;;25.80;99.90;;;;;;5094606;28;20017;-42
2023/11/02 11:03:17;;;;;;;2.65;0.93;;;25.70;99.90;;;;;;5095566;28;20495;-42
2023/11/02 11:05:44;;;;;;;3.20;0.70;;;25.80;99.90;;;;;;5094811;28;20040;-42
2023/11/02 11:08:12;;;;;;;4.60;0.85;;;25.80;99.90;;;;;;5093783;28;20024;-42
2023/11/02 11:10:38;;;;;;;3.58;1.35;;;25.80;99.90;;;;;;5093224;28;20492;-42
2023/11/02 11:13:09;;;;;;;2.97;1.10;;;25.80;99.90;;;;;;5095443;28;20027;-42
2023/11/02 11:15:36;;;;;;;5.70;1.23;;;25.80;99.90;;;;;;5095602;28;20028;-43
2023/11/02 11:18:06;;;;;;;5.90;1.38;;;25.80;99.90;;;;;;5095387;28;20024;-42
2023/11/02 11:20:32;;;;;;;4.78;1.13;;;25.80;99.90;;;;;;5095409;28;20024;-42
2023/11/02 11:22:58;;;;;;;7.88;1.05;;;25.80;99.90;;;;;;5094035;28;20024;-43
2023/11/02 11:25:25;;;;;;;5.60;1.15;;;25.90;99.90;;;;;;5095168;28;20024;-42
2023/11/02 11:27:51;;;;;;;3.20;0.85;;;25.90;99.90;;;;;;5094742;28;20384;-42
2023/11/02 11:30:23;;;;;;;3.92;1.33;;;25.90;99.90;;;;;;5094752;28;20030;-42
2023/11/02 11:32:49;;;;;;;5.10;1.70;;;25.90;99.90;;;;;;5092463;28;20097;-43
2023/11/02 11:35:17;;;;;;;9.45;1.30;;;25.90;99.90;;;;;;5094552;28;20051;-43
2023/11/02 11:37:49;;;;;;;3.15;1.10;;;25.90;99.90;;;;;;5093543;28;20017;-43
2023/11/02 11:40:21;;;;;;;7.28;1.40;;;25.90;99.90;;;;;;5094476;28;20032;-42
2023/11/02 11:45:45;;;;;;;5.80;1.50;;;26.00;99.90;;;;;;5094716;28;20058;-43
2023/11/02 11:48:12;;;;;;;3.40;1.08;;;26.00;99.90;;;;;;5092192;28;20097;-42
2023/11/02 11:50:39;;;;;;;6.03;1.20;;;26.00;99.90;;;;;;5093489;28;20043;-43
2023/11/02 11:53:15;;;;;;;6.72;1.40;;;26.00;99.90;;;;;;5094387;28;20021;-44
2023/11/02 11:55:45;;;;;;;5.57;1.17;;;26.00;99.90;;;;;;5102347;28;20851;-42
2023/11/02 11:58:12;;;;;;;4.68;1.13;;;26.00;99.90;;;;;;5114946;28;20035;-41
2023/11/02 12:00:53;;;;;;;4.20;1.05;;;26.00;99.90;;;;;;5108167;28;20024;-42
2023/11/02 12:03:43;;;;;;;5.20;1.60;;;26.10;99.90;;;;;;5115156;28;20016;-41
2023/11/02 12:06:11;;;;;;;9.48;2.03;;;26.10;99.90;;;;;;5114772;28;20028;-42
2023/11/02 12:08:47;;;;;;;10.95;2.63;;;26.10;99.90;;;;;;5106876;28;20023;-42
2023/11/02 12:11:14;;;;;;;9.23;1.90;;;26.10;99.90;;;;;;5099256;28;20055;-43
2023/11/02 12:14:00;;;;;;;11.13;3.50;;;26.10;99.90;;;;;;5100481;28;20024;-42
2023/11/02 12:16:34;;;;;;;9.80;2.33;;;26.00;99.90;;;;;;5097756;28;20032;-42
2023/11/02 12:19:01;;;;;;;13.77;2.55;;;26.00;99.90;;;;;;5093180;28;20537;-42
2023/11/02 12:21:27;;;;;;;6.78;2.10;;;26.00;99.90;;;;;;5093768;28;20099;-43
2023/11/02 12:23:54;;;;;;;7.70;2.33;;;26.00;99.90;;;;;;5094477;28;20162;-42
2023/11/02 12:26:22;;;;;;;11.70;2.20;;;25.90;99.90;;;;;;5093245;28;20399;-45
2023/11/02 12:28:50;;;;;;;6.07;2.17;;;25.90;99.90;;;;;;5105222;28;20387;-40
2023/11/02 12:31:26;;;;;;;16.70;3.05;;;25.90;99.90;;;;;;5085835;28;20043;-41
2023/11/02 12:33:52;;;;;;;6.47;2.42;;;25.80;99.90;;;;;;5107280;28;20138;-41
2023/11/02 12:36:18;;;;;;;10.30;2.10;;;25.80;99.90;;;;;;5101578;28;20415;-42
2023/11/02 12:38:50;;;;;;;6.72;1.90;;;25.80;99.90;;;;;;5096744;27;20032;-41
2023/11/02 12:41:30;;;;;;;10.85;2.15;;;25.80;99.90;;;;;;5091144;28;20059;-42
2023/11/02 12:44:00;;;;;;;8.73;2.20;;;25.80;99.90;;;;;;5099900;28;20026;-41
2023/11/02 12:46:26;;;;;;;10.10;2.40;;;25.80;99.90;;;;;;5099157;28;20020;-42
2023/11/02 12:48:53;;;;;;;9.10;2.10;;;25.80;99.90;;;;;;5099422;28;20016;-42
2023/11/02 12:51:23;;;;;;;11.82;2.83;;;25.80;99.90;;;;;;5097077;28;20024;-42
2023/11/02 12:53:51;;;;;;;9.98;2.25;;;25.80;99.90;;;;;;5097660;28;20032;-42
2023/11/02 12:56:18;;;;;;;9.95;2.90;;;25.80;99.90;;;;;;5097042;28;20028;-42
2023/11/02 12:58:44;;;;;;;8.35;2.60;;;25.70;99.90;;;;;;5098485;28;20020;-42
2023/11/02 13:01:10;;;;;;;12.68;2.83;;;25.70;99.90;;;;;;5099143;28;20024;-42
2023/11/02 13:03:36;;;;;;;12.32;2.33;;;25.70;99.90;;;;;;5085390;28;20407;-42
2023/11/02 13:06:03;;;;;;;7.90;2.17;;;25.70;99.90;;;;;;5096219;28;20059;-42